createdAt,value
2023-05-19T00:00:13.529Z,4.90
2023-05-19T00:01:13.502Z,4.91
2023-05-19T00:02:13.538Z,4.93
2023-05-19T00:03:13.786Z,4.90
2023-05-19T00:04:13.525Z,4.88
2023-05-19T00:05:13.484Z,4.87
2023-05-19T00:06:13.475Z,4.87
2023-05-19T00:07:13.456Z,4.86
2023-05-19T00:08:13.445Z,4.86
2023-05-19T00:09:13.439Z,4.87
2023-05-19T00:10:13.418Z,4.87
2023-05-19T00:11:13.416Z,4.86
2023-05-19T00:12:13.405Z,4.86
2023-05-19T00:13:13.391Z,4.83
2023-05-19T00:14:13.390Z,4.84
2023-05-19T00:15:13.379Z,4.84
2023-05-19T00:16:13.512Z,4.86
2023-05-19T00:17:13.331Z,4.84
2023-05-19T00:18:13.351Z,4.83
2023-05-19T00:19:13.400Z,4.83
2023-05-19T00:20:14.455Z,4.83
2023-05-19T00:21:13.298Z,4.80
2023-05-19T00:22:13.312Z,4.80
2023-05-19T00:23:13.266Z,4.83
2023-05-19T00:24:13.268Z,4.79
2023-05-19T00:25:13.268Z,4.80
2023-05-19T00:26:13.271Z,4.77
2023-05-19T00:27:13.233Z,4.77
2023-05-19T00:28:13.220Z,4.77
2023-05-19T00:29:13.281Z,4.75
2023-05-19T00:30:13.257Z,4.72
2023-05-19T00:31:13.200Z,4.72
2023-05-19T00:32:13.259Z,4.69
2023-05-19T00:33:13.225Z,4.71
2023-05-19T00:34:13.173Z,4.71
2023-05-19T00:35:13.163Z,4.68
2023-05-19T00:36:13.269Z,4.68
2023-05-19T00:37:13.149Z,4.67
2023-05-19T00:38:13.133Z,4.65
2023-05-19T00:39:13.127Z,4.64
2023-05-19T00:40:13.108Z,4.64
2023-05-19T00:41:13.101Z,4.61
2023-05-19T00:42:13.111Z,4.61
2023-05-19T00:43:13.105Z,4.59
2023-05-19T00:44:13.057Z,4.59
2023-05-19T00:45:13.052Z,4.56
2023-05-19T00:46:13.152Z,4.56
2023-05-19T00:47:13.071Z,4.51
2023-05-19T00:48:13.035Z,4.51
2023-05-19T00:49:13.028Z,4.47
2023-05-19T00:50:13.010Z,4.47
2023-05-19T00:51:12.990Z,4.47
2023-05-19T00:52:13.038Z,4.44
2023-05-19T00:53:12.965Z,4.43
2023-05-19T00:54:12.979Z,4.43
2023-05-19T00:55:12.952Z,4.39
2023-05-19T00:56:12.944Z,4.39
2023-05-19T00:57:12.924Z,4.38
2023-05-19T00:58:12.939Z,4.36
2023-05-19T00:59:12.926Z,4.38
2023-05-19T01:00:12.903Z,4.36
2023-05-19T01:01:12.928Z,4.36
2023-05-19T01:02:12.882Z,4.38
2023-05-19T01:03:13.047Z,4.35
2023-05-19T01:04:12.870Z,4.35
2023-05-19T01:05:12.875Z,4.35
2023-05-19T01:06:12.860Z,4.32
2023-05-19T01:07:12.850Z,4.34
2023-05-19T01:08:12.834Z,4.32
2023-05-19T01:09:13.847Z,4.31
2023-05-19T01:10:12.815Z,4.29
2023-05-19T01:11:12.822Z,4.25
2023-05-19T01:12:12.774Z,4.25
2023-05-19T01:13:12.769Z,4.24
2023-05-19T01:14:12.759Z,4.21
2023-05-19T01:15:12.766Z,4.18
2023-05-19T01:16:12.897Z,4.17
2023-05-19T01:17:12.766Z,4.16
2023-05-19T01:18:12.763Z,4.16
2023-05-19T01:19:12.751Z,4.14
2023-05-19T01:20:12.694Z,4.14
2023-05-19T01:21:12.696Z,4.11
2023-05-19T01:22:12.682Z,4.11
2023-05-19T01:23:12.692Z,4.13
2023-05-19T01:24:12.651Z,4.14
2023-05-19T01:25:12.651Z,4.14
2023-05-19T01:26:12.648Z,4.13
2023-05-19T01:27:12.643Z,4.11
2023-05-19T01:28:12.645Z,4.10
2023-05-19T01:29:12.638Z,4.10
2023-05-19T01:30:12.601Z,4.10
2023-05-19T01:31:12.581Z,4.10
2023-05-19T01:32:12.636Z,4.08
2023-05-19T01:33:12.573Z,4.07
2023-05-19T01:34:12.581Z,4.07
2023-05-19T01:35:12.549Z,4.07
2023-05-19T01:36:12.535Z,4.02
2023-05-19T01:37:12.533Z,4.02
2023-05-19T01:38:12.574Z,3.99
2023-05-19T01:39:12.533Z,3.98
2023-05-19T01:40:12.511Z,3.96
2023-05-19T01:41:12.510Z,3.95
2023-05-19T01:42:12.485Z,3.93
2023-05-19T01:43:12.485Z,3.93
2023-05-19T01:44:12.463Z,3.89
2023-05-19T01:45:12.475Z,3.86
2023-05-19T01:46:12.504Z,3.86
2023-05-19T01:47:12.444Z,3.86
2023-05-19T01:48:12.437Z,3.86
2023-05-19T01:49:12.418Z,3.84
2023-05-19T01:50:12.399Z,3.86
2023-05-19T01:51:12.426Z,3.82
2023-05-19T01:52:12.402Z,3.82
2023-05-19T01:53:12.373Z,3.82
2023-05-19T01:54:12.353Z,3.82
2023-05-19T01:55:12.343Z,3.82
2023-05-19T01:56:12.353Z,3.82
2023-05-19T01:57:12.371Z,3.82
2023-05-19T01:58:12.341Z,3.81
2023-05-19T01:59:12.301Z,3.77
2023-05-19T02:00:12.322Z,3.74
2023-05-19T02:01:12.296Z,3.74
2023-05-19T02:02:12.293Z,3.72
2023-05-19T02:03:12.280Z,3.71
2023-05-19T02:04:12.322Z,3.72
2023-05-19T02:05:12.273Z,3.72
2023-05-19T02:06:12.280Z,3.74
2023-05-19T02:07:12.238Z,3.74
2023-05-19T02:08:12.244Z,3.71
2023-05-19T02:09:12.233Z,3.70
2023-05-19T02:10:12.212Z,3.71
2023-05-19T02:11:12.195Z,3.72
2023-05-19T02:12:12.209Z,3.72
2023-05-19T02:13:12.163Z,3.70
2023-05-19T02:14:12.159Z,3.71
2023-05-19T02:15:12.183Z,3.70
2023-05-19T02:16:19.122Z,3.70
2023-05-19T02:17:18.637Z,3.68
2023-05-19T02:18:18.622Z,3.67
2023-05-19T02:19:18.631Z,3.62
2023-05-19T02:20:20.060Z,3.62
2023-05-19T02:21:18.567Z,3.59
2023-05-19T02:22:18.622Z,3.60
2023-05-19T02:23:19.589Z,3.59
2023-05-19T02:24:19.572Z,3.54
2023-05-19T02:25:12.101Z,3.56
2023-05-19T02:26:18.549Z,3.53
2023-05-19T02:27:18.538Z,3.56
2023-05-19T02:28:18.520Z,3.56
2023-05-19T02:29:18.511Z,3.57
2023-05-19T02:30:19.700Z,3.57
2023-05-19T02:31:18.554Z,3.57
2023-05-19T02:32:19.736Z,3.57
2023-05-19T02:33:18.467Z,3.57
2023-05-19T02:34:18.491Z,3.57
2023-05-19T02:35:11.955Z,3.54
2023-05-19T02:36:18.434Z,3.54
2023-05-19T02:37:19.789Z,3.53
2023-05-19T02:38:11.917Z,3.50
2023-05-19T02:39:18.412Z,3.49
2023-05-19T02:40:18.419Z,3.45
2023-05-19T02:41:19.410Z,3.44
2023-05-19T02:42:18.410Z,3.42
2023-05-19T02:43:18.397Z,3.41
2023-05-19T02:44:18.362Z,3.41
2023-05-19T02:45:11.851Z,3.41
2023-05-19T02:46:11.868Z,3.41
2023-05-19T02:47:19.361Z,3.39
2023-05-19T02:48:19.930Z,3.39
2023-05-19T02:49:18.317Z,3.41
2023-05-19T02:50:18.349Z,3.41
2023-05-19T02:51:18.305Z,3.37
2023-05-19T02:52:18.276Z,3.37
2023-05-19T02:53:11.769Z,3.37
2023-05-19T02:54:15.893Z,3.35
2023-05-19T02:55:11.769Z,3.34
2023-05-19T02:56:11.745Z,3.31
2023-05-19T02:57:11.723Z,3.30
2023-05-19T02:58:11.693Z,3.30
2023-05-19T02:59:11.702Z,3.26
2023-05-19T03:00:11.749Z,3.25
2023-05-19T03:01:11.704Z,3.26
2023-05-19T03:02:11.852Z,3.26
2023-05-19T03:03:11.659Z,3.23
2023-05-19T03:04:11.608Z,3.23
2023-05-19T03:05:11.659Z,3.22
2023-05-19T03:06:11.653Z,3.25
2023-05-19T03:07:11.585Z,3.26
2023-05-19T03:08:11.584Z,3.26
2023-05-19T03:09:11.566Z,3.26
2023-05-19T03:10:11.550Z,3.23
2023-05-19T03:11:11.542Z,3.28
2023-05-19T03:12:11.550Z,3.25
2023-05-19T03:13:11.550Z,3.25
2023-05-19T03:14:11.503Z,3.25
2023-05-19T03:15:11.482Z,3.23
2023-05-19T03:16:11.504Z,3.22
2023-05-19T03:17:11.541Z,3.20
2023-05-19T03:18:11.497Z,3.16
2023-05-19T03:19:11.490Z,3.19
2023-05-19T03:20:11.450Z,3.16
2023-05-19T03:21:11.429Z,3.16
2023-05-19T03:22:11.430Z,3.17
2023-05-19T03:23:11.444Z,3.16
2023-05-19T03:24:11.418Z,3.17
2023-05-19T03:25:11.396Z,3.17
2023-05-19T03:26:11.396Z,3.17
2023-05-19T03:27:11.401Z,3.15
2023-05-19T03:28:11.357Z,3.15
2023-05-19T03:29:11.382Z,3.13
2023-05-19T03:30:11.348Z,3.15
2023-05-19T03:31:11.334Z,3.15
2023-05-19T03:32:11.345Z,3.15
2023-05-19T03:33:11.534Z,3.15
2023-05-19T03:34:11.343Z,3.16
2023-05-19T03:35:11.294Z,3.19
2023-05-19T03:36:11.290Z,3.20
2023-05-19T03:37:11.294Z,3.19
2023-05-19T03:38:11.268Z,3.20
2023-05-19T03:39:11.291Z,3.19
2023-05-19T03:40:11.264Z,3.22
2023-05-19T03:41:11.220Z,3.19
2023-05-19T03:42:11.294Z,3.19
2023-05-19T03:43:11.227Z,3.20
2023-05-19T03:44:11.216Z,3.22
2023-05-19T03:45:11.222Z,3.23
2023-05-19T03:46:11.223Z,3.22
2023-05-19T03:47:11.184Z,3.20
2023-05-19T03:48:11.222Z,3.20
2023-05-19T03:49:11.156Z,3.22
2023-05-19T03:50:11.148Z,3.20
2023-05-19T03:51:19.800Z,3.20
2023-05-19T03:52:11.126Z,3.20
2023-05-19T03:53:11.106Z,3.22
2023-05-19T03:54:11.115Z,3.22
2023-05-19T03:55:11.100Z,3.22
2023-05-19T03:56:11.085Z,3.22
2023-05-19T03:57:11.086Z,3.23
2023-05-19T03:58:11.106Z,3.23
2023-05-19T03:59:11.086Z,3.25
2023-05-19T04:00:11.259Z,3.23
2023-05-19T04:01:11.024Z,3.20
2023-05-19T04:02:11.064Z,3.20
2023-05-19T04:03:11.181Z,3.20
2023-05-19T04:04:11.042Z,3.22
2023-05-19T04:05:10.983Z,3.23
2023-05-19T04:06:10.975Z,3.23
2023-05-19T04:07:10.961Z,3.26
2023-05-19T04:08:10.979Z,3.26
2023-05-19T04:09:10.964Z,3.26
2023-05-19T04:10:10.962Z,3.28
2023-05-19T04:11:10.949Z,3.28
2023-05-19T04:12:10.975Z,3.30
2023-05-19T04:13:10.912Z,3.28
2023-05-19T04:14:10.915Z,3.30
2023-05-19T04:15:10.898Z,3.33
2023-05-19T04:16:11.037Z,3.34
2023-05-19T04:17:10.866Z,3.37
2023-05-19T04:18:10.924Z,3.35
2023-05-19T04:19:10.936Z,3.41
2023-05-19T04:20:10.836Z,3.42
2023-05-19T04:21:10.837Z,3.46
2023-05-19T04:22:10.864Z,3.49
2023-05-19T04:23:10.832Z,3.53
2023-05-19T04:24:10.807Z,3.56
2023-05-19T04:25:10.798Z,3.57
2023-05-19T04:26:10.821Z,3.59
2023-05-19T04:27:10.781Z,3.62
2023-05-19T04:28:10.765Z,3.64
2023-05-19T04:29:10.790Z,3.68
2023-05-19T04:30:10.770Z,3.70
2023-05-19T04:31:10.940Z,3.71
2023-05-19T04:32:10.714Z,3.71
2023-05-19T04:33:10.725Z,3.74
2023-05-19T04:34:10.720Z,3.77
2023-05-19T04:35:11.419Z,3.78
2023-05-19T04:36:10.766Z,3.82
2023-05-19T04:37:10.663Z,3.84
2023-05-19T04:38:10.661Z,3.89
2023-05-19T04:39:10.666Z,3.92
2023-05-19T04:40:10.646Z,3.96
2023-05-19T04:41:10.681Z,3.99
2023-05-19T04:42:10.628Z,4.06
2023-05-19T04:43:10.610Z,4.10
2023-05-19T04:44:10.589Z,4.16
2023-05-19T04:45:10.598Z,4.20
2023-05-19T04:46:13.237Z,4.25
2023-05-19T04:47:10.635Z,4.28
2023-05-19T04:48:10.577Z,4.34
2023-05-19T04:49:10.541Z,4.36
2023-05-19T04:50:10.538Z,4.39
2023-05-19T04:51:10.549Z,4.43
2023-05-19T04:52:10.536Z,4.46
2023-05-19T04:53:10.531Z,4.50
2023-05-19T04:54:10.499Z,4.53
2023-05-19T04:55:10.513Z,4.57
2023-05-19T04:56:10.488Z,4.59
2023-05-19T04:57:10.503Z,4.62
2023-05-19T04:58:10.468Z,4.65
2023-05-19T04:59:10.445Z,4.69
2023-05-19T05:00:10.462Z,4.74
2023-05-19T05:01:10.434Z,4.77
2023-05-19T05:02:10.608Z,4.84
2023-05-19T05:03:10.513Z,4.88
2023-05-19T05:04:10.546Z,4.93
2023-05-19T05:05:10.424Z,4.99
2023-05-19T05:06:10.408Z,5.06
2023-05-19T05:07:10.374Z,5.11
2023-05-19T05:08:10.361Z,5.17
2023-05-19T05:09:10.374Z,5.24
2023-05-19T05:10:10.350Z,5.30
2023-05-19T05:11:10.320Z,5.30
2023-05-19T05:12:10.308Z,5.40
2023-05-19T05:13:11.789Z,5.45
2023-05-19T05:14:10.322Z,5.49
2023-05-19T05:15:10.776Z,5.55
2023-05-19T05:16:10.311Z,5.60
2023-05-19T05:17:10.270Z,5.66
2023-05-19T05:18:10.456Z,5.74
2023-05-19T05:19:10.335Z,5.81
2023-05-19T05:20:10.259Z,5.85
2023-05-19T05:21:10.221Z,5.92
2023-05-19T05:22:10.226Z,6.01
2023-05-19T05:23:10.260Z,6.08
2023-05-19T05:24:10.210Z,6.14
2023-05-19T05:25:10.193Z,6.20
2023-05-19T05:26:10.194Z,6.27
2023-05-19T05:27:10.428Z,6.35
2023-05-19T05:28:10.160Z,6.40
2023-05-19T05:29:10.152Z,6.48
2023-05-19T05:30:10.116Z,6.55
2023-05-19T05:31:10.148Z,6.61
2023-05-19T05:32:10.152Z,6.69
2023-05-19T05:33:10.309Z,6.76
2023-05-19T05:34:10.096Z,6.86
2023-05-19T05:35:11.135Z,6.94
2023-05-19T05:36:10.297Z,7.01
2023-05-19T05:37:10.069Z,7.09
2023-05-19T05:38:10.092Z,7.16
2023-05-19T05:39:10.060Z,7.24
2023-05-19T05:40:10.255Z,7.33
2023-05-19T05:41:10.032Z,7.45
2023-05-19T05:42:10.082Z,7.52
2023-05-19T05:43:10.022Z,7.62
2023-05-19T05:44:10.029Z,7.70
2023-05-19T05:45:09.998Z,7.77
2023-05-19T05:46:10.024Z,7.84
2023-05-19T05:47:10.034Z,7.94
2023-05-19T05:48:10.064Z,8.02
2023-05-19T05:49:09.947Z,8.10
2023-05-19T05:50:10.074Z,8.17
2023-05-19T05:51:18.565Z,8.27
2023-05-19T05:52:09.939Z,8.39
2023-05-19T05:53:10.012Z,8.50
2023-05-19T05:54:09.912Z,8.60
2023-05-19T05:55:09.910Z,8.70
2023-05-19T05:56:09.908Z,8.80
2023-05-19T05:57:10.213Z,8.86
2023-05-19T05:58:09.887Z,8.98
2023-05-19T05:59:17.572Z,9.08
2023-05-19T06:00:16.410Z,9.17
2023-05-19T06:01:09.883Z,9.26
2023-05-19T06:02:09.876Z,9.37
2023-05-19T06:03:10.287Z,9.45
2023-05-19T06:04:10.646Z,9.53
2023-05-19T06:05:09.888Z,9.62
2023-05-19T06:06:09.810Z,9.71
2023-05-19T06:07:09.934Z,9.77
2023-05-19T06:08:09.843Z,9.85
2023-05-19T06:09:10.028Z,9.95
2023-05-19T06:10:09.776Z,10.07
2023-05-19T06:11:09.862Z,10.14
2023-05-19T06:12:09.789Z,10.26
2023-05-19T06:13:09.796Z,10.42
2023-05-19T06:14:09.726Z,10.62
2023-05-19T06:15:09.710Z,10.88
2023-05-19T06:16:09.969Z,11.20
2023-05-19T06:17:09.740Z,11.59
2023-05-19T06:18:09.759Z,11.97
2023-05-19T06:19:09.724Z,12.38
2023-05-19T06:20:09.915Z,12.85
2023-05-19T06:21:09.669Z,13.44
2023-05-19T06:22:09.619Z,14.20
2023-05-19T06:23:09.611Z,15.11
2023-05-19T06:24:09.631Z,15.89
2023-05-19T06:25:10.153Z,16.72
2023-05-19T06:26:09.577Z,17.42
2023-05-19T06:27:09.560Z,18.05
2023-05-19T06:28:09.567Z,18.50
2023-05-19T06:29:09.558Z,18.93
2023-05-19T06:30:09.560Z,19.38
2023-05-19T06:31:09.568Z,19.82
2023-05-19T06:32:09.511Z,20.20
2023-05-19T06:33:09.545Z,20.53
2023-05-19T06:34:09.547Z,20.72
2023-05-19T06:35:12.215Z,20.91
2023-05-19T06:36:09.497Z,21.18
2023-05-19T06:37:09.505Z,21.34
2023-05-19T06:38:09.447Z,21.42
2023-05-19T06:39:09.480Z,21.55
2023-05-19T06:40:09.436Z,21.59
2023-05-19T06:41:09.465Z,21.61
2023-05-19T06:42:09.427Z,21.85
2023-05-19T06:43:09.387Z,22.08
2023-05-19T06:44:09.399Z,22.42
2023-05-19T06:45:09.374Z,22.14
2023-05-19T06:46:09.556Z,22.08
2023-05-19T06:47:09.429Z,22.30
2023-05-19T06:48:10.213Z,22.26
2023-05-19T06:49:09.438Z,21.68
2023-05-19T06:50:09.358Z,22.02
2023-05-19T06:51:09.357Z,22.30
2023-05-19T06:52:09.443Z,22.35
2023-05-19T06:53:09.325Z,21.96
2023-05-19T06:54:09.330Z,21.89
2023-05-19T06:55:09.279Z,21.99
2023-05-19T06:56:09.280Z,21.52
2023-05-19T06:57:09.287Z,21.96
2023-05-19T06:58:09.303Z,22.49
2023-05-19T06:59:09.235Z,23.06
2023-05-19T07:00:09.244Z,23.37
2023-05-19T07:01:09.208Z,23.69
2023-05-19T07:02:09.270Z,23.56
2023-05-19T07:03:09.266Z,23.75
2023-05-19T07:04:09.238Z,23.56
2023-05-19T07:05:09.166Z,23.59
2023-05-19T07:06:09.186Z,23.94
2023-05-19T07:07:09.144Z,24.09
2023-05-19T07:08:09.177Z,23.97
2023-05-19T07:09:09.147Z,24.12
2023-05-19T07:10:09.131Z,24.33
2023-05-19T07:11:09.147Z,24.14
2023-05-19T07:12:09.159Z,24.11
2023-05-19T07:13:09.113Z,23.12
2023-05-19T07:14:09.082Z,22.85
2023-05-19T07:15:09.093Z,22.74
2023-05-19T07:16:09.096Z,22.63
2023-05-19T07:17:09.099Z,22.23
2023-05-19T07:18:09.127Z,21.53
2023-05-19T07:19:09.125Z,20.17
2023-05-19T07:20:09.043Z,19.25
2023-05-19T07:21:08.994Z,18.35
2023-05-19T07:22:08.992Z,17.65
2023-05-19T07:23:08.990Z,17.09
2023-05-19T07:24:08.991Z,16.29
2023-05-19T07:25:09.003Z,15.56
2023-05-19T07:26:08.959Z,15.23
2023-05-19T07:27:09.027Z,14.95
2023-05-19T07:28:08.941Z,14.67
2023-05-19T07:29:08.915Z,14.44
2023-05-19T07:30:08.925Z,14.24
2023-05-19T07:31:08.905Z,14.11
2023-05-19T07:32:09.062Z,13.86
2023-05-19T07:33:08.945Z,13.79
2023-05-19T07:34:08.880Z,13.72
2023-05-19T07:35:08.864Z,13.71
2023-05-19T07:36:08.864Z,13.62
2023-05-19T07:37:08.819Z,13.61
2023-05-19T07:38:08.822Z,13.59
2023-05-19T07:39:08.869Z,13.51
2023-05-19T07:40:08.805Z,13.46
2023-05-19T07:41:08.795Z,13.41
2023-05-19T07:42:08.797Z,13.31
2023-05-19T07:43:08.774Z,13.27
2023-05-19T07:44:08.750Z,13.28
2023-05-19T07:45:08.868Z,13.29
2023-05-19T07:46:08.839Z,13.31
2023-05-19T07:47:08.764Z,13.31
2023-05-19T07:48:08.771Z,13.29
2023-05-19T07:49:08.719Z,13.29
2023-05-19T07:50:08.703Z,13.29
2023-05-19T07:51:08.698Z,13.31
2023-05-19T07:52:08.718Z,13.31
2023-05-19T07:53:08.667Z,13.35
2023-05-19T07:54:08.663Z,13.35
2023-05-19T07:55:08.636Z,13.35
2023-05-19T07:56:08.628Z,13.35
2023-05-19T07:57:08.617Z,13.41
2023-05-19T07:58:08.634Z,13.38
2023-05-19T07:59:08.607Z,13.46
2023-05-19T08:00:08.581Z,13.47
2023-05-19T08:01:08.590Z,13.53
2023-05-19T08:02:08.670Z,13.55
2023-05-19T08:03:08.671Z,13.61
2023-05-19T08:04:09.743Z,13.61
2023-05-19T08:05:08.550Z,13.61
2023-05-19T08:06:08.536Z,13.61
2023-05-19T08:07:08.517Z,13.62
2023-05-19T08:08:08.514Z,13.63
2023-05-19T08:09:08.511Z,13.66
2023-05-19T08:10:08.497Z,13.68
2023-05-19T08:11:08.480Z,13.71
2023-05-19T08:12:08.511Z,13.75
2023-05-19T08:13:08.454Z,13.80
2023-05-19T08:14:08.455Z,13.84
2023-05-19T08:15:08.477Z,13.88
2023-05-19T08:16:08.491Z,13.93
2023-05-19T08:17:08.424Z,14.01
2023-05-19T08:18:08.512Z,14.05
2023-05-19T08:19:08.455Z,14.05
2023-05-19T08:20:08.539Z,14.09
2023-05-19T08:21:08.372Z,14.05
2023-05-19T08:22:08.369Z,14.02
2023-05-19T08:23:08.381Z,13.99
2023-05-19T08:24:08.348Z,13.99
2023-05-19T08:25:08.331Z,14.01
2023-05-19T08:26:08.321Z,14.05
2023-05-19T08:27:08.328Z,14.09
2023-05-19T08:28:08.302Z,14.11
2023-05-19T08:29:08.300Z,14.12
2023-05-19T08:30:08.343Z,14.19
2023-05-19T08:31:08.379Z,14.23
2023-05-19T08:32:09.010Z,14.26
2023-05-19T08:33:08.338Z,14.29
2023-05-19T08:34:08.253Z,14.36
2023-05-19T08:35:08.237Z,14.35
2023-05-19T08:36:08.287Z,14.39
2023-05-19T08:37:08.240Z,14.48
2023-05-19T08:38:08.194Z,14.56
2023-05-19T08:39:08.202Z,14.59
2023-05-19T08:40:08.170Z,14.63
2023-05-19T08:41:08.214Z,14.64
2023-05-19T08:42:08.164Z,14.67
2023-05-19T08:43:08.156Z,14.75
2023-05-19T08:44:08.121Z,14.85
2023-05-19T08:45:08.166Z,14.91
2023-05-19T08:46:08.418Z,14.93
2023-05-19T08:47:08.319Z,14.94
2023-05-19T08:48:08.170Z,14.95
2023-05-19T08:49:08.094Z,14.97
2023-05-19T08:50:08.107Z,14.95
2023-05-19T08:51:08.059Z,15.01
2023-05-19T08:52:08.080Z,15.00
2023-05-19T08:53:12.760Z,14.95
2023-05-19T08:54:08.147Z,14.91
2023-05-19T08:55:08.072Z,14.95
2023-05-19T08:56:07.993Z,14.95
2023-05-19T08:57:08.006Z,14.95
2023-05-19T08:58:08.009Z,14.95
2023-05-19T08:59:07.981Z,14.91
2023-05-19T09:00:07.964Z,14.91
2023-05-19T09:01:08.005Z,14.95
2023-05-19T09:02:07.938Z,15.01
2023-05-19T09:04:08.069Z,15.18
2023-05-19T09:05:08.036Z,15.23
2023-05-19T09:06:07.948Z,15.33
2023-05-19T09:07:07.947Z,15.40
2023-05-19T09:08:07.903Z,15.49
2023-05-19T09:09:07.870Z,15.53
2023-05-19T09:10:07.922Z,15.55
2023-05-19T09:11:07.875Z,15.51
2023-05-19T09:12:07.832Z,15.51
2023-05-19T09:13:07.830Z,15.52
2023-05-19T09:14:07.838Z,15.51
2023-05-19T09:15:07.793Z,15.51
2023-05-19T09:16:08.138Z,15.52
2023-05-19T09:17:07.838Z,15.48
2023-05-19T09:18:07.839Z,15.38
2023-05-19T09:19:07.853Z,15.18
2023-05-19T09:20:07.761Z,15.12
2023-05-19T09:21:07.761Z,15.11
2023-05-19T09:22:07.752Z,15.11
2023-05-19T09:23:07.757Z,15.16
2023-05-19T09:24:07.722Z,15.18
2023-05-19T09:25:07.712Z,15.16
2023-05-19T09:26:08.155Z,15.18
2023-05-19T09:27:07.688Z,15.22
2023-05-19T09:28:07.697Z,15.25
2023-05-19T09:29:07.802Z,15.23
2023-05-19T09:30:07.795Z,15.23
2023-05-19T09:31:07.637Z,15.19
2023-05-19T09:32:07.767Z,15.19
2023-05-19T09:33:07.759Z,15.20
2023-05-19T09:34:07.646Z,15.27
2023-05-19T09:35:07.676Z,15.33
2023-05-19T09:36:07.681Z,15.41
2023-05-19T09:37:07.624Z,15.48
2023-05-19T09:38:07.699Z,15.38
2023-05-19T09:39:07.581Z,15.44
2023-05-19T09:40:07.571Z,15.48
2023-05-19T09:41:07.602Z,15.55
2023-05-19T09:42:07.561Z,15.59
2023-05-19T09:43:07.497Z,15.70
2023-05-19T09:44:07.564Z,15.77
2023-05-19T09:45:07.512Z,15.85
2023-05-19T09:46:07.822Z,15.88
2023-05-19T09:47:07.551Z,15.89
2023-05-19T09:48:07.577Z,15.85
2023-05-19T09:49:07.462Z,15.86
2023-05-19T09:50:07.448Z,15.91
2023-05-19T09:51:07.515Z,15.91
2023-05-19T09:52:07.427Z,15.95
2023-05-19T09:53:07.420Z,15.96
2023-05-19T09:54:07.448Z,15.93
2023-05-19T09:55:07.409Z,16.04
2023-05-19T09:56:07.380Z,16.11
2023-05-19T09:57:08.531Z,16.11
2023-05-19T09:58:07.418Z,16.08
2023-05-19T09:59:07.541Z,16.13
2023-05-19T10:00:07.365Z,16.07
2023-05-19T10:01:07.327Z,16.07
2023-05-19T10:02:07.405Z,16.13
2023-05-19T10:03:07.318Z,16.13
2023-05-19T10:04:07.283Z,16.01
2023-05-19T10:05:07.366Z,15.93
2023-05-19T10:06:07.320Z,15.93
2023-05-19T10:07:07.260Z,16.01
2023-05-19T10:08:07.294Z,16.11
2023-05-19T10:09:07.303Z,16.16
2023-05-19T10:10:07.335Z,16.26
2023-05-19T10:11:07.262Z,16.34
2023-05-19T10:12:07.206Z,16.45
2023-05-19T10:13:07.257Z,16.51
2023-05-19T10:14:07.200Z,16.57
2023-05-19T10:15:07.214Z,16.62
2023-05-19T10:16:07.282Z,16.67
2023-05-19T10:17:07.319Z,16.81
2023-05-19T10:18:07.201Z,16.91
2023-05-19T10:19:07.207Z,17.02
2023-05-19T10:20:07.159Z,17.14
2023-05-19T10:21:07.177Z,17.18
2023-05-19T10:22:07.159Z,17.15
2023-05-19T10:23:07.085Z,16.80
2023-05-19T10:24:07.068Z,16.54
2023-05-19T10:25:07.077Z,16.40
2023-05-19T10:26:07.080Z,16.36
2023-05-19T10:27:07.053Z,16.27
2023-05-19T10:28:07.265Z,16.23
2023-05-19T10:29:07.029Z,16.25
2023-05-19T10:30:09.258Z,16.30
2023-05-19T10:31:07.018Z,16.47
2023-05-19T10:32:07.095Z,16.51
2023-05-19T10:33:07.052Z,16.42
2023-05-19T10:34:06.982Z,16.42
2023-05-19T10:35:06.997Z,16.22
2023-05-19T10:36:06.972Z,16.23
2023-05-19T10:37:06.968Z,16.32
2023-05-19T10:38:06.941Z,16.41
2023-05-19T10:39:06.948Z,16.51
2023-05-19T10:40:06.945Z,16.57
2023-05-19T10:41:06.899Z,16.47
2023-05-19T10:42:06.889Z,16.48
2023-05-19T10:43:14.842Z,16.57
2023-05-19T10:44:14.812Z,16.67
2023-05-19T10:45:14.561Z,16.67
2023-05-19T10:46:14.511Z,16.62
2023-05-19T10:47:14.588Z,16.67
2023-05-19T10:48:14.391Z,16.81
2023-05-19T10:49:13.526Z,16.92
2023-05-19T10:50:15.398Z,17.03
2023-05-19T10:51:14.400Z,17.05
2023-05-19T10:52:13.362Z,17.15
2023-05-19T10:53:15.880Z,17.17
2023-05-19T10:54:14.423Z,17.17
2023-05-19T10:55:13.363Z,17.22
2023-05-19T10:56:14.358Z,17.24
2023-05-19T10:57:13.244Z,17.06
2023-05-19T10:58:14.273Z,17.06
2023-05-19T10:59:14.979Z,17.09
2023-05-19T11:00:13.234Z,17.17
2023-05-19T11:01:13.247Z,17.22
2023-05-19T11:02:14.314Z,17.27
2023-05-19T11:03:13.203Z,17.24
2023-05-19T11:04:13.218Z,17.20
2023-05-19T11:05:15.593Z,17.15
2023-05-19T11:06:13.156Z,17.20
2023-05-19T11:07:06.636Z,17.20
2023-05-19T11:08:06.655Z,17.32
2023-05-19T11:09:15.132Z,17.30
2023-05-19T11:10:14.216Z,17.22
2023-05-19T11:11:06.576Z,17.00
2023-05-19T11:12:13.102Z,16.80
2023-05-19T11:14:14.410Z,16.75
2023-05-19T11:15:06.570Z,16.66
2023-05-19T11:16:06.574Z,16.62
2023-05-19T11:17:06.705Z,16.60
2023-05-19T11:18:06.556Z,16.44
2023-05-19T11:19:06.568Z,16.47
2023-05-19T11:20:06.497Z,16.52
2023-05-19T11:21:06.497Z,16.59
2023-05-19T11:22:06.483Z,16.54
2023-05-19T11:23:06.611Z,16.60
2023-05-19T11:24:06.541Z,16.72
2023-05-19T11:25:06.443Z,16.90
2023-05-19T11:26:06.442Z,17.06
2023-05-19T11:27:06.427Z,17.27
2023-05-19T11:28:06.413Z,17.49
2023-05-19T11:29:06.431Z,17.70
2023-05-19T11:30:06.758Z,17.83
2023-05-19T11:31:06.383Z,17.98
2023-05-19T11:32:06.401Z,17.94
2023-05-19T11:33:06.437Z,17.87
2023-05-19T11:34:06.354Z,17.91
2023-05-19T11:35:06.345Z,17.96
2023-05-19T11:36:06.326Z,17.96
2023-05-19T11:37:06.318Z,17.92
2023-05-19T11:38:06.352Z,17.83
2023-05-19T11:39:06.308Z,17.76
2023-05-19T11:40:06.301Z,17.53
2023-05-19T11:41:06.262Z,17.10
2023-05-19T11:42:06.371Z,16.81
2023-05-19T11:43:06.248Z,16.80
2023-05-19T11:44:06.266Z,16.69
2023-05-19T11:45:06.259Z,16.70
2023-05-19T11:46:06.281Z,16.73
2023-05-19T11:47:06.198Z,16.78
2023-05-19T11:48:06.284Z,16.82
2023-05-19T11:49:06.202Z,16.87
2023-05-19T11:50:06.176Z,16.92
2023-05-19T11:51:06.180Z,16.99
2023-05-19T11:52:06.160Z,16.98
2023-05-19T11:53:06.163Z,17.02
2023-05-19T11:54:06.161Z,17.09
2023-05-19T11:55:06.129Z,17.03
2023-05-19T11:56:06.134Z,17.00
2023-05-19T11:57:06.120Z,16.85
2023-05-19T11:58:06.260Z,16.65
2023-05-19T11:59:06.080Z,16.52
2023-05-19T12:00:06.077Z,16.42
2023-05-19T12:01:06.099Z,16.45
2023-05-19T12:02:06.053Z,16.51
2023-05-19T12:03:06.290Z,16.57
2023-05-19T12:04:06.151Z,16.52
2023-05-19T12:05:06.049Z,16.50
2023-05-19T12:06:06.042Z,16.50
2023-05-19T12:07:06.026Z,16.50
2023-05-19T12:08:05.995Z,16.54
2023-05-19T12:09:05.971Z,16.41
2023-05-19T12:10:06.008Z,16.41
2023-05-19T12:11:05.959Z,16.45
2023-05-19T12:12:05.942Z,16.52
2023-05-19T12:13:05.946Z,16.63
2023-05-19T12:14:05.948Z,16.70
2023-05-19T12:15:06.020Z,16.81
2023-05-19T12:16:05.944Z,16.90
2023-05-19T12:17:05.908Z,16.92
2023-05-19T12:18:05.919Z,16.91
2023-05-19T12:19:05.900Z,16.78
2023-05-19T12:20:05.861Z,16.80
2023-05-19T12:21:05.852Z,16.91
2023-05-19T12:22:05.821Z,17.07
2023-05-19T12:23:05.883Z,17.18
2023-05-19T12:24:05.836Z,17.25
2023-05-19T12:25:05.813Z,17.24
2023-05-19T12:26:05.820Z,17.18
2023-05-19T12:27:05.778Z,17.14
2023-05-19T12:28:05.798Z,17.18
2023-05-19T12:29:05.769Z,17.06
2023-05-19T12:30:05.746Z,17.06
2023-05-19T12:31:05.762Z,17.05
2023-05-19T12:32:05.774Z,17.06
2023-05-19T12:33:05.772Z,17.15
2023-05-19T12:34:05.724Z,17.18
2023-05-19T12:35:05.691Z,17.20
2023-05-19T12:36:05.699Z,17.33
2023-05-19T12:37:05.722Z,17.33
2023-05-19T12:38:05.839Z,17.39
2023-05-19T12:39:05.657Z,17.40
2023-05-19T12:40:05.643Z,17.25
2023-05-19T12:41:05.647Z,17.25
2023-05-19T12:42:05.641Z,17.27
2023-05-19T12:43:05.806Z,17.20
2023-05-19T12:44:05.590Z,17.05
2023-05-19T12:45:05.618Z,17.18
2023-05-19T12:46:05.605Z,17.28
2023-05-19T12:47:05.582Z,17.53
2023-05-19T12:48:05.669Z,17.66
2023-05-19T12:49:05.575Z,17.73
2023-05-19T12:50:05.545Z,17.45
2023-05-19T12:51:05.581Z,17.39
2023-05-19T12:52:11.731Z,17.30
2023-05-19T12:53:05.509Z,17.25
2023-05-19T12:54:05.555Z,17.25
2023-05-19T12:55:05.580Z,17.35
2023-05-19T12:56:05.509Z,17.51
2023-05-19T12:57:05.455Z,17.66
2023-05-19T12:58:05.448Z,17.83
2023-05-19T12:59:05.461Z,17.91
2023-05-19T13:00:05.463Z,17.96
2023-05-19T13:01:05.512Z,18.10
2023-05-19T13:02:05.497Z,17.94
2023-05-19T13:03:05.976Z,17.99
2023-05-19T13:04:06.359Z,18.13
2023-05-19T13:05:05.400Z,18.20
2023-05-19T13:06:05.374Z,18.29